sensor_id;sensor_type;location;lat;lon;timestamp;P1;durP1;ratioP1;P2;durP2;ratioP2
53044;SDS011;38930;52.766;6.884;2023-05-20T00:00:47;4.88;;;2.70;;
53044;SDS011;38930;52.766;6.884;2023-05-20T00:03:13;6.70;;;2.60;;
53044;SDS011;38930;52.766;6.884;2023-05-20T00:05:39;4.75;;;2.67;;
53044;SDS011;38930;52.766;6.884;2023-05-20T00:08:05;6.93;;;3.85;;
53044;SDS011;38930;52.766;6.884;2023-05-20T00:10:33;6.82;;;2.53;;
53044;SDS011;38930;52.766;6.884;2023-05-20T00:12:59;6.35;;;2.80;;
53044;SDS011;38930;52.766;6.884;2023-05-20T00:15:25;6.07;;;2.88;;
53044;SDS011;38930;52.766;6.884;2023-05-20T00:17:50;10.48;;;3.15;;
53044;SDS011;38930;52.766;6.884;2023-05-20T00:20:16;7.35;;;2.95;;
53044;SDS011;38930;52.766;6.884;2023-05-20T00:22:42;6.68;;;2.70;;
53044;SDS011;38930;52.766;6.884;2023-05-20T00:25:08;5.00;;;2.58;;
53044;SDS011;38930;52.766;6.884;2023-05-20T00:27:34;6.07;;;2.55;;
53044;SDS011;38930;52.766;6.884;2023-05-20T00:30:00;4.03;;;2.35;;
53044;SDS011;38930;52.766;6.884;2023-05-20T00:32:26;6.30;;;2.70;;
53044;SDS011;38930;52.766;6.884;2023-05-20T00:34:58;5.80;;;2.83;;
53044;SDS011;38930;52.766;6.884;2023-05-20T00:37:24;10.10;;;3.10;;
53044;SDS011;38930;52.766;6.884;2023-05-20T00:39:50;6.72;;;2.70;;
53044;SDS011;38930;52.766;6.884;2023-05-20T00:42:26;9.73;;;3.25;;
53044;SDS011;38930;52.766;6.884;2023-05-20T00:44:52;5.25;;;2.95;;
53044;SDS011;38930;52.766;6.884;2023-05-20T00:47:19;8.03;;;3.30;;
53044;SDS011;38930;52.766;6.884;2023-05-20T00:49:49;7.90;;;3.17;;
53044;SDS011;38930;52.766;6.884;2023-05-20T00:52:16;8.70;;;3.03;;
53044;SDS011;38930;52.766;6.884;2023-05-20T00:54:43;6.43;;;3.53;;
53044;SDS011;38930;52.766;6.884;2023-05-20T00:57:10;4.57;;;2.63;;
53044;SDS011;38930;52.766;6.884;2023-05-20T00:59:36;8.97;;;3.57;;
53044;SDS011;38930;52.766;6.884;2023-05-20T01:02:05;6.53;;;2.95;;
53044;SDS011;38930;52.766;6.884;2023-05-20T01:04:31;4.80;;;2.80;;
53044;SDS011;38930;52.766;6.884;2023-05-20T01:06:58;6.65;;;3.00;;
53044;SDS011;38930;52.766;6.884;2023-05-20T01:09:26;6.72;;;2.50;;
53044;SDS011;38930;52.766;6.884;2023-05-20T01:11:55;5.25;;;2.50;;
53044;SDS011;38930;52.766;6.884;2023-05-20T01:14:29;5.60;;;2.97;;
53044;SDS011;38930;52.766;6.884;2023-05-20T01:16:59;6.55;;;3.03;;
53044;SDS011;38930;52.766;6.884;2023-05-20T01:19:42;7.47;;;3.15;;
53044;SDS011;38930;52.766;6.884;2023-05-20T01:22:09;4.65;;;2.45;;
53044;SDS011;38930;52.766;6.884;2023-05-20T01:24:40;6.95;;;2.70;;
53044;SDS011;38930;52.766;6.884;2023-05-20T01:27:15;4.68;;;2.70;;
53044;SDS011;38930;52.766;6.884;2023-05-20T01:29:41;6.78;;;3.08;;
53044;SDS011;38930;52.766;6.884;2023-05-20T01:32:10;6.47;;;2.67;;
53044;SDS011;38930;52.766;6.884;2023-05-20T01:34:39;7.47;;;2.78;;
53044;SDS011;38930;52.766;6.884;2023-05-20T01:37:06;4.38;;;2.50;;
53044;SDS011;38930;52.766;6.884;2023-05-20T01:39:33;6.82;;;2.42;;
53044;SDS011;38930;52.766;6.884;2023-05-20T01:42:02;5.00;;;2.90;;
53044;SDS011;38930;52.766;6.884;2023-05-20T01:44:28;3.92;;;2.67;;
53044;SDS011;38930;52.766;6.884;2023-05-20T01:46:54;6.10;;;2.60;;
53044;SDS011;38930;52.766;6.884;2023-05-20T01:49:20;9.52;;;3.03;;
53044;SDS011;38930;52.766;6.884;2023-05-20T01:51:46;6.07;;;2.50;;
53044;SDS011;38930;52.766;6.884;2023-05-20T01:54:11;5.50;;;2.92;;
53044;SDS011;38930;52.766;6.884;2023-05-20T01:56:37;4.05;;;2.80;;
53044;SDS011;38930;52.766;6.884;2023-05-20T01:59:02;6.50;;;2.58;;
53044;SDS011;38930;52.766;6.884;2023-05-20T02:01:28;4.82;;;2.67;;
53044;SDS011;38930;52.766;6.884;2023-05-20T02:03:54;3.90;;;2.30;;
53044;SDS011;38930;52.766;6.884;2023-05-20T02:06:19;5.60;;;2.67;;
53044;SDS011;38930;52.766;6.884;2023-05-20T02:08:45;9.15;;;2.80;;
53044;SDS011;38930;52.766;6.884;2023-05-20T02:11:10;4.50;;;2.30;;
53044;SDS011;38930;52.766;6.884;2023-05-20T02:13:37;5.05;;;2.60;;
53044;SDS011;38930;52.766;6.884;2023-05-20T02:16:03;4.97;;;2.55;;
53044;SDS011;38930;52.766;6.884;2023-05-20T02:18:29;8.52;;;2.95;;
53044;SDS011;38930;52.766;6.884;2023-05-20T02:21:00;6.03;;;2.80;;
53044;SDS011;38930;52.766;6.884;2023-05-20T02:23:27;7.07;;;3.00;;
53044;SDS011;38930;52.766;6.884;2023-05-20T02:25:53;5.90;;;2.60;;
53044;SDS011;38930;52.766;6.884;2023-05-20T02:28:19;4.72;;;2.97;;
53044;SDS011;38930;52.766;6.884;2023-05-20T02:30:45;7.85;;;2.80;;
53044;SDS011;38930;52.766;6.884;2023-05-20T02:33:11;4.30;;;2.42;;
53044;SDS011;38930;52.766;6.884;2023-05-20T02:35:37;5.10;;;2.60;;
53044;SDS011;38930;52.766;6.884;2023-05-20T02:38:03;5.07;;;2.75;;
53044;SDS011;38930;52.766;6.884;2023-05-20T02:40:30;5.47;;;2.90;;
53044;SDS011;38930;52.766;6.884;2023-05-20T02:42:56;6.78;;;2.63;;
53044;SDS011;38930;52.766;6.884;2023-05-20T02:45:22;8.35;;;2.60;;
53044;SDS011;38930;52.766;6.884;2023-05-20T02:47:47;7.22;;;2.60;;
53044;SDS011;38930;52.766;6.884;2023-05-20T02:50:13;5.05;;;2.35;;
53044;SDS011;38930;52.766;6.884;2023-05-20T02:52:38;3.30;;;2.17;;
53044;SDS011;38930;52.766;6.884;2023-05-20T02:55:06;4.38;;;2.30;;
53044;SDS011;38930;52.766;6.884;2023-05-20T02:57:32;5.45;;;2.50;;
53044;SDS011;38930;52.766;6.884;2023-05-20T03:00:02;4.30;;;2.20;;
53044;SDS011;38930;52.766;6.884;2023-05-20T03:02:29;3.13;;;2.40;;
53044;SDS011;38930;52.766;6.884;2023-05-20T03:04:55;5.90;;;2.50;;
53044;SDS011;38930;52.766;6.884;2023-05-20T03:07:21;4.88;;;2.33;;
53044;SDS011;38930;52.766;6.884;2023-05-20T03:09:46;5.65;;;2.53;;
53044;SDS011;38930;52.766;6.884;2023-05-20T03:12:12;7.22;;;2.25;;
53044;SDS011;38930;52.766;6.884;2023-05-20T03:14:38;4.05;;;2.72;;
53044;SDS011;38930;52.766;6.884;2023-05-20T03:17:03;5.45;;;2.38;;
53044;SDS011;38930;52.766;6.884;2023-05-20T03:19:29;6.22;;;2.22;;
53044;SDS011;38930;52.766;6.884;2023-05-20T03:21:55;5.28;;;2.25;;
53044;SDS011;38930;52.766;6.884;2023-05-20T03:24:21;5.18;;;2.30;;
53044;SDS011;38930;52.766;6.884;2023-05-20T03:26:47;5.13;;;2.22;;
53044;SDS011;38930;52.766;6.884;2023-05-20T03:29:13;2.70;;;2.17;;
53044;SDS011;38930;52.766;6.884;2023-05-20T03:31:39;4.30;;;2.22;;
53044;SDS011;38930;52.766;6.884;2023-05-20T03:34:04;5.80;;;2.65;;
53044;SDS011;38930;52.766;6.884;2023-05-20T03:36:30;3.80;;;2.50;;
53044;SDS011;38930;52.766;6.884;2023-05-20T03:38:56;3.97;;;2.40;;
53044;SDS011;38930;52.766;6.884;2023-05-20T03:41:21;4.65;;;2.40;;
53044;SDS011;38930;52.766;6.884;2023-05-20T03:43:47;3.75;;;2.00;;
53044;SDS011;38930;52.766;6.884;2023-05-20T03:46:13;4.30;;;2.50;;
53044;SDS011;38930;52.766;6.884;2023-05-20T03:48:38;3.50;;;2.00;;
53044;SDS011;38930;52.766;6.884;2023-05-20T03:51:05;11.23;;;2.85;;
53044;SDS011;38930;52.766;6.884;2023-05-20T03:53:33;7.65;;;2.28;;
53044;SDS011;38930;52.766;6.884;2023-05-20T03:55:58;4.85;;;2.30;;
53044;SDS011;38930;52.766;6.884;2023-05-20T03:58:24;5.35;;;2.28;;
53044;SDS011;38930;52.766;6.884;2023-05-20T04:00:50;3.45;;;2.17;;
53044;SDS011;38930;52.766;6.884;2023-05-20T04:03:15;4.00;;;2.10;;
53044;SDS011;38930;52.766;6.884;2023-05-20T04:05:41;4.10;;;2.17;;
53044;SDS011;38930;52.766;6.884;2023-05-20T04:08:07;3.33;;;2.03;;
53044;SDS011;38930;52.766;6.884;2023-05-20T04:10:33;3.42;;;2.25;;
53044;SDS011;38930;52.766;6.884;2023-05-20T04:12:59;2.75;;;2.03;;
53044;SDS011;38930;52.766;6.884;2023-05-20T04:15:25;4.03;;;2.33;;
53044;SDS011;38930;52.766;6.884;2023-05-20T04:17:53;5.63;;;2.10;;
53044;SDS011;38930;52.766;6.884;2023-05-20T04:20:19;2.90;;;2.10;;
53044;SDS011;38930;52.766;6.884;2023-05-20T04:22:45;3.50;;;2.13;;
53044;SDS011;38930;52.766;6.884;2023-05-20T04:25:12;10.38;;;2.17;;
53044;SDS011;38930;52.766;6.884;2023-05-20T04:27:38;3.85;;;2.30;;
53044;SDS011;38930;52.766;6.884;2023-05-20T04:30:04;4.05;;;2.33;;
53044;SDS011;38930;52.766;6.884;2023-05-20T04:32:31;4.53;;;2.55;;
53044;SDS011;38930;52.766;6.884;2023-05-20T04:34:58;4.75;;;2.38;;
53044;SDS011;38930;52.766;6.884;2023-05-20T04:37:26;2.53;;;1.75;;
53044;SDS011;38930;52.766;6.884;2023-05-20T04:39:52;3.87;;;2.23;;
53044;SDS011;38930;52.766;6.884;2023-05-20T04:42:18;8.55;;;2.45;;
53044;SDS011;38930;52.766;6.884;2023-05-20T04:44:45;3.67;;;1.92;;
53044;SDS011;38930;52.766;6.884;2023-05-20T04:47:12;5.32;;;2.10;;
53044;SDS011;38930;52.766;6.884;2023-05-20T04:49:38;2.80;;;1.77;;
53044;SDS011;38930;52.766;6.884;2023-05-20T04:52:04;3.95;;;1.75;;
53044;SDS011;38930;52.766;6.884;2023-05-20T04:54:30;2.55;;;1.58;;
53044;SDS011;38930;52.766;6.884;2023-05-20T04:56:57;3.17;;;2.00;;
53044;SDS011;38930;52.766;6.884;2023-05-20T04:59:23;5.27;;;1.80;;
53044;SDS011;38930;52.766;6.884;2023-05-20T05:01:48;3.70;;;1.52;;
53044;SDS011;38930;52.766;6.884;2023-05-20T05:04:14;5.70;;;1.98;;
53044;SDS011;38930;52.766;6.884;2023-05-20T05:06:40;3.08;;;1.88;;
53044;SDS011;38930;52.766;6.884;2023-05-20T05:09:05;2.58;;;1.60;;
53044;SDS011;38930;52.766;6.884;2023-05-20T05:11:32;5.18;;;1.58;;
53044;SDS011;38930;52.766;6.884;2023-05-20T05:13:58;4.40;;;1.55;;
53044;SDS011;38930;52.766;6.884;2023-05-20T05:16:23;4.35;;;1.63;;
53044;SDS011;38930;52.766;6.884;2023-05-20T05:18:49;3.30;;;1.58;;
53044;SDS011;38930;52.766;6.884;2023-05-20T05:21:15;2.10;;;1.50;;
53044;SDS011;38930;52.766;6.884;2023-05-20T05:23:40;2.78;;;1.40;;
53044;SDS011;38930;52.766;6.884;2023-05-20T05:26:09;4.10;;;1.60;;
53044;SDS011;38930;52.766;6.884;2023-05-20T05:28:35;3.58;;;1.73;;
53044;SDS011;38930;52.766;6.884;2023-05-20T05:31:00;3.03;;;1.73;;
53044;SDS011;38930;52.766;6.884;2023-05-20T05:33:26;2.88;;;1.42;;
53044;SDS011;38930;52.766;6.884;2023-05-20T05:35:52;3.00;;;1.58;;
53044;SDS011;38930;52.766;6.884;2023-05-20T05:38:18;2.55;;;1.70;;
53044;SDS011;38930;52.766;6.884;2023-05-20T05:40:43;5.45;;;1.65;;
53044;SDS011;38930;52.766;6.884;2023-05-20T05:43:09;3.38;;;1.35;;
53044;SDS011;38930;52.766;6.884;2023-05-20T05:45:35;2.80;;;1.50;;
53044;SDS011;38930;52.766;6.884;2023-05-20T05:48:00;1.98;;;1.23;;
53044;SDS011;38930;52.766;6.884;2023-05-20T05:50:26;3.17;;;1.40;;
53044;SDS011;38930;52.766;6.884;2023-05-20T05:52:52;1.80;;;1.38;;
53044;SDS011;38930;52.766;6.884;2023-05-20T05:55:17;2.03;;;1.40;;
53044;SDS011;38930;52.766;6.884;2023-05-20T05:57:43;1.73;;;1.30;;
53044;SDS011;38930;52.766;6.884;2023-05-20T06:00:09;2.33;;;1.45;;
53044;SDS011;38930;52.766;6.884;2023-05-20T06:02:35;2.35;;;1.63;;
53044;SDS011;38930;52.766;6.884;2023-05-20T06:05:01;2.30;;;1.20;;
53044;SDS011;38930;52.766;6.884;2023-05-20T06:07:27;2.55;;;1.40;;
53044;SDS011;38930;52.766;6.884;2023-05-20T06:09:53;2.85;;;1.33;;
53044;SDS011;38930;52.766;6.884;2023-05-20T06:12:19;1.80;;;1.23;;
53044;SDS011;38930;52.766;6.884;2023-05-20T06:14:44;4.72;;;1.35;;
53044;SDS011;38930;52.766;6.884;2023-05-20T06:17:10;1.55;;;1.13;;
53044;SDS011;38930;52.766;6.884;2023-05-20T06:19:35;3.28;;;1.35;;
53044;SDS011;38930;52.766;6.884;2023-05-20T06:22:01;3.40;;;1.50;;
53044;SDS011;38930;52.766;6.884;2023-05-20T06:24:27;3.67;;;1.50;;
53044;SDS011;38930;52.766;6.884;2023-05-20T06:26:52;2.37;;;1.30;;
53044;SDS011;38930;52.766;6.884;2023-05-20T06:29:18;3.53;;;1.40;;
53044;SDS011;38930;52.766;6.884;2023-05-20T06:31:43;4.70;;;1.20;;
53044;SDS011;38930;52.766;6.884;2023-05-20T06:34:09;2.65;;;1.50;;
53044;SDS011;38930;52.766;6.884;2023-05-20T06:36:34;3.65;;;1.67;;
53044;SDS011;38930;52.766;6.884;2023-05-20T06:39:00;3.10;;;1.50;;
53044;SDS011;38930;52.766;6.884;2023-05-20T06:41:26;5.60;;;1.50;;
53044;SDS011;38930;52.766;6.884;2023-05-20T06:43:51;2.10;;;1.40;;
53044;SDS011;38930;52.766;6.884;2023-05-20T06:46:17;3.08;;;1.50;;
53044;SDS011;38930;52.766;6.884;2023-05-20T06:48:42;2.70;;;1.40;;
53044;SDS011;38930;52.766;6.884;2023-05-20T06:51:08;2.15;;;1.42;;
53044;SDS011;38930;52.766;6.884;2023-05-20T06:53:34;3.83;;;1.47;;
53044;SDS011;38930;52.766;6.884;2023-05-20T06:56:00;2.40;;;1.42;;
53044;SDS011;38930;52.766;6.884;2023-05-20T06:58:26;2.93;;;1.47;;
53044;SDS011;38930;52.766;6.884;2023-05-20T07:00:52;2.70;;;1.60;;
53044;SDS011;38930;52.766;6.884;2023-05-20T07:03:18;2.58;;;1.30;;
53044;SDS011;38930;52.766;6.884;2023-05-20T07:05:43;4.75;;;1.63;;
53044;SDS011;38930;52.766;6.884;2023-05-20T07:08:09;1.75;;;1.40;;
53044;SDS011;38930;52.766;6.884;2023-05-20T07:10:35;2.63;;;1.40;;
53044;SDS011;38930;52.766;6.884;2023-05-20T07:13:01;3.97;;;1.70;;
53044;SDS011;38930;52.766;6.884;2023-05-20T07:15:27;3.83;;;1.60;;
53044;SDS011;38930;52.766;6.884;2023-05-20T07:17:53;4.03;;;1.50;;
53044;SDS011;38930;52.766;6.884;2023-05-20T07:20:18;5.77;;;1.93;;
53044;SDS011;38930;52.766;6.884;2023-05-20T07:22:44;2.10;;;1.40;;
53044;SDS011;38930;52.766;6.884;2023-05-20T07:25:10;5.87;;;1.93;;
53044;SDS011;38930;52.766;6.884;2023-05-20T07:27:36;2.67;;;1.40;;
53044;SDS011;38930;52.766;6.884;2023-05-20T07:30:01;2.83;;;2.00;;
53044;SDS011;38930;52.766;6.884;2023-05-20T07:32:27;3.00;;;1.57;;
53044;SDS011;38930;52.766;6.884;2023-05-20T07:34:53;3.83;;;1.48;;
53044;SDS011;38930;52.766;6.884;2023-05-20T07:37:18;2.30;;;1.50;;
53044;SDS011;38930;52.766;6.884;2023-05-20T07:39:44;2.37;;;1.50;;
53044;SDS011;38930;52.766;6.884;2023-05-20T07:42:09;2.33;;;1.50;;
53044;SDS011;38930;52.766;6.884;2023-05-20T07:44:35;2.03;;;1.60;;
53044;SDS011;38930;52.766;6.884;2023-05-20T07:47:01;4.20;;;1.90;;
53044;SDS011;38930;52.766;6.884;2023-05-20T07:49:27;3.17;;;1.70;;
53044;SDS011;38930;52.766;6.884;2023-05-20T07:51:52;3.53;;;1.90;;
53044;SDS011;38930;52.766;6.884;2023-05-20T07:54:18;2.87;;;1.93;;
53044;SDS011;38930;52.766;6.884;2023-05-20T07:56:44;3.33;;;1.67;;
53044;SDS011;38930;52.766;6.884;2023-05-20T07:59:09;3.87;;;1.50;;
53044;SDS011;38930;52.766;6.884;2023-05-20T08:01:35;2.40;;;1.60;;
53044;SDS011;38930;52.766;6.884;2023-05-20T08:04:01;2.67;;;1.67;;
53044;SDS011;38930;52.766;6.884;2023-05-20T08:06:26;4.13;;;1.70;;
53044;SDS011;38930;52.766;6.884;2023-05-20T08:08:52;2.57;;;1.80;;
53044;SDS011;38930;52.766;6.884;2023-05-20T08:11:18;5.85;;;1.80;;
53044;SDS011;38930;52.766;6.884;2023-05-20T08:13:45;2.78;;;1.70;;
53044;SDS011;38930;52.766;6.884;2023-05-20T08:16:11;6.60;;;2.10;;
53044;SDS011;38930;52.766;6.884;2023-05-20T08:18:36;4.67;;;1.83;;
53044;SDS011;38930;52.766;6.884;2023-05-20T08:21:03;3.43;;;1.63;;
53044;SDS011;38930;52.766;6.884;2023-05-20T08:23:31;2.60;;;1.52;;
53044;SDS011;38930;52.766;6.884;2023-05-20T08:25:57;4.20;;;1.73;;
53044;SDS011;38930;52.766;6.884;2023-05-20T08:28:26;2.63;;;1.67;;
53044;SDS011;38930;52.766;6.884;2023-05-20T08:30:52;3.10;;;1.50;;
53044;SDS011;38930;52.766;6.884;2023-05-20T08:33:18;2.70;;;1.63;;
53044;SDS011;38930;52.766;6.884;2023-05-20T08:35:45;3.40;;;1.50;;
53044;SDS011;38930;52.766;6.884;2023-05-20T08:38:11;2.10;;;1.40;;
53044;SDS011;38930;52.766;6.884;2023-05-20T08:40:37;2.37;;;1.33;;
53044;SDS011;38930;52.766;6.884;2023-05-20T08:43:02;2.90;;;1.50;;
53044;SDS011;38930;52.766;6.884;2023-05-20T08:45:30;3.00;;;1.53;;
53044;SDS011;38930;52.766;6.884;2023-05-20T08:47:57;3.08;;;1.40;;
53044;SDS011;38930;52.766;6.884;2023-05-20T08:50:23;3.77;;;1.80;;
53044;SDS011;38930;52.766;6.884;2023-05-20T08:52:48;2.70;;;1.30;;
53044;SDS011;38930;52.766;6.884;2023-05-20T08:55:16;3.90;;;1.57;;
53044;SDS011;38930;52.766;6.884;2023-05-20T08:57:48;3.38;;;1.80;;
53044;SDS011;38930;52.766;6.884;2023-05-20T09:00:14;5.85;;;2.47;;
53044;SDS011;38930;52.766;6.884;2023-05-20T09:02:41;3.33;;;1.40;;
53044;SDS011;38930;52.766;6.884;2023-05-20T09:05:08;2.72;;;1.38;;
53044;SDS011;38930;52.766;6.884;2023-05-20T09:07:35;3.63;;;2.00;;
53044;SDS011;38930;52.766;6.884;2023-05-20T09:10:01;3.23;;;1.23;;
53044;SDS011;38930;52.766;6.884;2023-05-20T09:12:27;3.93;;;1.30;;
53044;SDS011;38930;52.766;6.884;2023-05-20T09:14:52;2.43;;;1.27;;
53044;SDS011;38930;52.766;6.884;2023-05-20T09:17:19;5.83;;;1.70;;
53044;SDS011;38930;52.766;6.884;2023-05-20T09:19:48;2.25;;;1.55;;
53044;SDS011;38930;52.766;6.884;2023-05-20T09:22:20;3.50;;;1.48;;
53044;SDS011;38930;52.766;6.884;2023-05-20T09:24:49;2.78;;;1.35;;
53044;SDS011;38930;52.766;6.884;2023-05-20T09:27:16;2.58;;;1.20;;
53044;SDS011;38930;52.766;6.884;2023-05-20T09:29:42;2.67;;;1.30;;
53044;SDS011;38930;52.766;6.884;2023-05-20T09:32:11;4.07;;;1.20;;
53044;SDS011;38930;52.766;6.884;2023-05-20T09:34:40;4.07;;;1.52;;
53044;SDS011;38930;52.766;6.884;2023-05-20T09:37:06;2.13;;;1.30;;
53044;SDS011;38930;52.766;6.884;2023-05-20T09:39:35;2.10;;;1.20;;
53044;SDS011;38930;52.766;6.884;2023-05-20T09:42:29;5.03;;;1.73;;
53044;SDS011;38930;52.766;6.884;2023-05-20T09:45:01;2.72;;;1.40;;
53044;SDS011;38930;52.766;6.884;2023-05-20T09:47:29;2.55;;;1.48;;
53044;SDS011;38930;52.766;6.884;2023-05-20T09:52:22;2.70;;;1.48;;
53044;SDS011;38930;52.766;6.884;2023-05-20T09:54:48;3.20;;;1.42;;
53044;SDS011;38930;52.766;6.884;2023-05-20T09:57:14;4.20;;;1.40;;
53044;SDS011;38930;52.766;6.884;2023-05-20T09:59:40;3.43;;;1.50;;
53044;SDS011;38930;52.766;6.884;2023-05-20T10:02:07;3.65;;;1.40;;
53044;SDS011;38930;52.766;6.884;2023-05-20T10:04:33;2.70;;;1.40;;
53044;SDS011;38930;52.766;6.884;2023-05-20T10:10:16;2.47;;;1.30;;
53044;SDS011;38930;52.766;6.884;2023-05-20T10:15:58;1.83;;;1.20;;
53044;SDS011;38930;52.766;6.884;2023-05-20T10:21:28;3.65;;;1.33;;
53044;SDS011;38930;52.766;6.884;2023-05-20T10:24:04;4.82;;;1.40;;
53044;SDS011;38930;52.766;6.884;2023-05-20T10:26:37;2.30;;;1.30;;
53044;SDS011;38930;52.766;6.884;2023-05-20T10:29:18;2.80;;;1.67;;
53044;SDS011;38930;52.766;6.884;2023-05-20T10:31:50;2.10;;;1.20;;
53044;SDS011;38930;52.766;6.884;2023-05-20T10:34:16;3.22;;;1.25;;
53044;SDS011;38930;52.766;6.884;2023-05-20T10:36:56;2.47;;;1.10;;
53044;SDS011;38930;52.766;6.884;2023-05-20T10:39:30;6.38;;;1.20;;
53044;SDS011;38930;52.766;6.884;2023-05-20T10:42:08;3.70;;;1.20;;
53044;SDS011;38930;52.766;6.884;2023-05-20T10:44:42;3.35;;;1.63;;
53044;SDS011;38930;52.766;6.884;2023-05-20T10:47:08;3.50;;;1.00;;
53044;SDS011;38930;52.766;6.884;2023-05-20T10:49:34;2.08;;;1.20;;
53044;SDS011;38930;52.766;6.884;2023-05-20T10:52:05;4.03;;;1.45;;
53044;SDS011;38930;52.766;6.884;2023-05-20T10:54:34;1.85;;;1.02;;
53044;SDS011;38930;52.766;6.884;2023-05-20T10:57:04;6.03;;;1.40;;
53044;SDS011;38930;52.766;6.884;2023-05-20T10:59:33;5.35;;;1.73;;
53044;SDS011;38930;52.766;6.884;2023-05-20T11:02:00;2.15;;;1.08;;
53044;SDS011;38930;52.766;6.884;2023-05-20T11:04:27;3.25;;;1.20;;
53044;SDS011;38930;52.766;6.884;2023-05-20T11:06:53;2.08;;;1.05;;
53044;SDS011;38930;52.766;6.884;2023-05-20T11:09:20;2.92;;;1.20;;
53044;SDS011;38930;52.766;6.884;2023-05-20T11:11:46;6.55;;;1.52;;
53044;SDS011;38930;52.766;6.884;2023-05-20T11:14:12;1.80;;;1.15;;
53044;SDS011;38930;52.766;6.884;2023-05-20T11:16:39;1.70;;;1.20;;
53044;SDS011;38930;52.766;6.884;2023-05-20T11:19:06;2.03;;;1.17;;
53044;SDS011;38930;52.766;6.884;2023-05-20T11:21:32;3.05;;;1.48;;
53044;SDS011;38930;52.766;6.884;2023-05-20T11:23:58;3.43;;;1.13;;
53044;SDS011;38930;52.766;6.884;2023-05-20T11:26:24;4.53;;;1.30;;
53044;SDS011;38930;52.766;6.884;2023-05-20T11:28:49;2.43;;;1.30;;
53044;SDS011;38930;52.766;6.884;2023-05-20T11:31:16;3.13;;;1.30;;
53044;SDS011;38930;52.766;6.884;2023-05-20T11:36:08;2.42;;;1.10;;
53044;SDS011;38930;52.766;6.884;2023-05-20T11:38:34;2.30;;;1.35;;
53044;SDS011;38930;52.766;6.884;2023-05-20T11:41:00;3.47;;;1.40;;
53044;SDS011;38930;52.766;6.884;2023-05-20T11:43:26;2.87;;;1.20;;
53044;SDS011;38930;52.766;6.884;2023-05-20T11:45:52;5.57;;;1.37;;
53044;SDS011;38930;52.766;6.884;2023-05-20T11:48:20;2.75;;;1.30;;
53044;SDS011;38930;52.766;6.884;2023-05-20T11:53:16;4.53;;;1.13;;
53044;SDS011;38930;52.766;6.884;2023-05-20T11:55:47;2.65;;;1.25;;
53044;SDS011;38930;52.766;6.884;2023-05-20T11:58:14;2.25;;;1.13;;
53044;SDS011;38930;52.766;6.884;2023-05-20T12:00:43;4.57;;;1.27;;
53044;SDS011;38930;52.766;6.884;2023-05-20T12:03:09;2.37;;;1.17;;
53044;SDS011;38930;52.766;6.884;2023-05-20T12:05:35;4.03;;;1.10;;
53044;SDS011;38930;52.766;6.884;2023-05-20T12:08:01;2.10;;;1.20;;
53044;SDS011;38930;52.766;6.884;2023-05-20T12:10:28;2.63;;;1.15;;
53044;SDS011;38930;52.766;6.884;2023-05-20T12:12:54;3.28;;;1.23;;
53044;SDS011;38930;52.766;6.884;2023-05-20T12:15:19;4.23;;;1.33;;
53044;SDS011;38930;52.766;6.884;2023-05-20T12:17:46;3.20;;;1.10;;
53044;SDS011;38930;52.766;6.884;2023-05-20T12:20:16;6.13;;;1.48;;
53044;SDS011;38930;52.766;6.884;2023-05-20T12:22:43;5.65;;;1.20;;
53044;SDS011;38930;52.766;6.884;2023-05-20T12:25:13;2.63;;;1.25;;
53044;SDS011;38930;52.766;6.884;2023-05-20T12:27:40;2.03;;;1.05;;
53044;SDS011;38930;52.766;6.884;2023-05-20T12:30:07;2.50;;;1.15;;
53044;SDS011;38930;52.766;6.884;2023-05-20T12:32:34;2.35;;;1.10;;
53044;SDS011;38930;52.766;6.884;2023-05-20T12:35:00;3.53;;;1.23;;
53044;SDS011;38930;52.766;6.884;2023-05-20T12:37:26;4.87;;;1.33;;
53044;SDS011;38930;52.766;6.884;2023-05-20T12:39:52;2.50;;;1.00;;
53044;SDS011;38930;52.766;6.884;2023-05-20T12:42:17;2.50;;;1.10;;
53044;SDS011;38930;52.766;6.884;2023-05-20T12:44:43;1.97;;;1.17;;
53044;SDS011;38930;52.766;6.884;2023-05-20T12:47:09;1.87;;;1.07;;
53044;SDS011;38930;52.766;6.884;2023-05-20T12:49:34;4.17;;;1.47;;
53044;SDS011;38930;52.766;6.884;2023-05-20T12:52:00;1.60;;;1.00;;
53044;SDS011;38930;52.766;6.884;2023-05-20T12:54:26;1.80;;;1.00;;
53044;SDS011;38930;52.766;6.884;2023-05-20T12:56:53;3.08;;;0.95;;
53044;SDS011;38930;52.766;6.884;2023-05-20T12:59:19;4.07;;;1.15;;
53044;SDS011;38930;52.766;6.884;2023-05-20T13:01:45;3.00;;;1.00;;
53044;SDS011;38930;52.766;6.884;2023-05-20T13:04:10;8.33;;;1.20;;
53044;SDS011;38930;52.766;6.884;2023-05-20T13:06:36;2.37;;;1.20;;
53044;SDS011;38930;52.766;6.884;2023-05-20T13:09:02;2.40;;;1.07;;
53044;SDS011;38930;52.766;6.884;2023-05-20T13:11:27;5.10;;;1.10;;
53044;SDS011;38930;52.766;6.884;2023-05-20T13:13:53;1.40;;;1.00;;
53044;SDS011;38930;52.766;6.884;2023-05-20T13:16:21;3.20;;;1.10;;
53044;SDS011;38930;52.766;6.884;2023-05-20T13:18:47;2.80;;;1.10;;
53044;SDS011;38930;52.766;6.884;2023-05-20T13:21:13;3.27;;;1.00;;
53044;SDS011;38930;52.766;6.884;2023-05-20T13:23:39;3.10;;;1.00;;
53044;SDS011;38930;52.766;6.884;2023-05-20T13:26:05;2.70;;;1.10;;
53044;SDS011;38930;52.766;6.884;2023-05-20T13:28:30;7.50;;;1.10;;
53044;SDS011;38930;52.766;6.884;2023-05-20T13:30:56;4.03;;;1.53;;
53044;SDS011;38930;52.766;6.884;2023-05-20T13:33:22;3.17;;;1.20;;
53044;SDS011;38930;52.766;6.884;2023-05-20T13:35:48;2.67;;;1.17;;
53044;SDS011;38930;52.766;6.884;2023-05-20T13:38:14;3.50;;;1.17;;
53044;SDS011;38930;52.766;6.884;2023-05-20T13:40:40;1.83;;;0.90;;
53044;SDS011;38930;52.766;6.884;2023-05-20T13:43:08;2.03;;;1.00;;
53044;SDS011;38930;52.766;6.884;2023-05-20T13:45:34;2.20;;;1.07;;
53044;SDS011;38930;52.766;6.884;2023-05-20T13:47:59;1.60;;;0.90;;
53044;SDS011;38930;52.766;6.884;2023-05-20T13:50:25;2.33;;;1.10;;
53044;SDS011;38930;52.766;6.884;2023-05-20T13:52:51;2.90;;;1.17;;
53044;SDS011;38930;52.766;6.884;2023-05-20T13:55:17;3.93;;;1.13;;
53044;SDS011;38930;52.766;6.884;2023-05-20T13:57:42;1.70;;;1.10;;
53044;SDS011;38930;52.766;6.884;2023-05-20T14:00:08;2.07;;;0.80;;
53044;SDS011;38930;52.766;6.884;2023-05-20T14:02:34;2.95;;;1.30;;
53044;SDS011;38930;52.766;6.884;2023-05-20T14:05:00;4.17;;;1.30;;
53044;SDS011;38930;52.766;6.884;2023-05-20T14:07:26;1.52;;;1.00;;
53044;SDS011;38930;52.766;6.884;2023-05-20T14:09:52;3.30;;;1.47;;
53044;SDS011;38930;52.766;6.884;2023-05-20T14:12:17;5.93;;;1.20;;
53044;SDS011;38930;52.766;6.884;2023-05-20T14:14:43;6.17;;;1.30;;
53044;SDS011;38930;52.766;6.884;2023-05-20T14:17:09;5.23;;;1.00;;
53044;SDS011;38930;52.766;6.884;2023-05-20T14:19:34;4.57;;;1.47;;
53044;SDS011;38930;52.766;6.884;2023-05-20T14:22:00;2.23;;;1.13;;
53044;SDS011;38930;52.766;6.884;2023-05-20T14:26:55;3.45;;;1.20;;
53044;SDS011;38930;52.766;6.884;2023-05-20T14:29:20;2.50;;;1.40;;
53044;SDS011;38930;52.766;6.884;2023-05-20T14:31:46;2.30;;;1.30;;
53044;SDS011;38930;52.766;6.884;2023-05-20T14:34:12;2.67;;;1.00;;
53044;SDS011;38930;52.766;6.884;2023-05-20T14:36:37;2.60;;;1.30;;
53044;SDS011;38930;52.766;6.884;2023-05-20T14:39:03;3.83;;;1.20;;
53044;SDS011;38930;52.766;6.884;2023-05-20T14:41:29;6.13;;;1.23;;
53044;SDS011;38930;52.766;6.884;2023-05-20T14:43:55;1.97;;;1.10;;
53044;SDS011;38930;52.766;6.884;2023-05-20T14:46:20;4.47;;;1.43;;
53044;SDS011;38930;52.766;6.884;2023-05-20T14:48:46;4.40;;;1.33;;
53044;SDS011;38930;52.766;6.884;2023-05-20T14:51:11;2.77;;;1.27;;
53044;SDS011;38930;52.766;6.884;2023-05-20T14:53:37;3.87;;;1.17;;
53044;SDS011;38930;52.766;6.884;2023-05-20T14:56:03;4.50;;;1.00;;
53044;SDS011;38930;52.766;6.884;2023-05-20T14:58:29;3.85;;;1.23;;
53044;SDS011;38930;52.766;6.884;2023-05-20T15:00:54;1.87;;;1.20;;
53044;SDS011;38930;52.766;6.884;2023-05-20T15:03:20;2.47;;;1.10;;